createdAt,value
2019-05-25T00:02:03.747Z,19.23
2019-05-25T00:04:35.763Z,20.57
2019-05-25T00:07:07.769Z,21.53
2019-05-25T00:09:39.968Z,24.17
2019-05-25T00:12:11.926Z,24.13
2019-05-25T00:14:43.876Z,23.43
2019-05-25T00:17:15.851Z,20.83
2019-05-25T00:19:47.787Z,20.63
2019-05-25T00:22:20.499Z,20.33
2019-05-25T00:24:52.478Z,22.37
2019-05-25T00:27:24.451Z,21.60
2019-05-25T00:29:56.381Z,22.30
2019-05-25T00:32:28.381Z,30.07
2019-05-25T00:35:00.330Z,24.87
2019-05-25T00:37:32.295Z,22.10
2019-05-25T00:40:04.634Z,21.50
2019-05-25T00:42:36.608Z,20.03
2019-05-25T00:45:08.873Z,21.73
2019-05-25T00:47:41.207Z,19.83
2019-05-25T00:50:13.277Z,20.20
2019-05-25T00:52:45.273Z,17.83
2019-05-25T00:55:17.232Z,15.23
2019-05-25T00:57:49.182Z,16.47
2019-05-25T01:00:22.072Z,15.97
2019-05-25T01:02:54.043Z,18.83
2019-05-25T01:05:26.045Z,20.47
2019-05-25T01:07:58.025Z,18.30
2019-05-25T01:10:30.369Z,19.90
2019-05-25T01:13:02.344Z,19.57
2019-05-25T01:15:34.375Z,17.97
2019-05-25T01:18:06.461Z,17.70
2019-05-25T01:20:38.523Z,16.60
2019-05-25T01:23:10.593Z,18.00
2019-05-25T01:25:42.763Z,17.40
2019-05-25T01:28:14.791Z,18.67
2019-05-25T01:30:46.796Z,19.03
2019-05-25T01:33:18.875Z,21.17
2019-05-25T01:35:51.216Z,20.60
2019-05-25T01:38:23.192Z,19.73
2019-05-25T01:40:55.133Z,19.77
2019-05-25T01:43:27.097Z,19.40
2019-05-25T01:45:59.037Z,25.03
2019-05-25T01:48:31.154Z,28.20
2019-05-25T01:51:03.121Z,35.17
2019-05-25T01:53:35.122Z,31.90
2019-05-25T01:56:07.075Z,29.00
2019-05-25T01:58:39.237Z,23.63
2019-05-25T02:01:11.246Z,24.33
2019-05-25T02:03:43.193Z,24.23
2019-05-25T02:06:15.187Z,21.43
2019-05-25T02:08:47.197Z,24.73
2019-05-25T02:11:19.151Z,38.97
2019-05-25T02:13:51.195Z,37.77
2019-05-25T02:16:23.320Z,44.07
2019-05-25T02:18:55.351Z,46.83
2019-05-25T02:21:27.354Z,39.27
2019-05-25T02:23:59.305Z,36.97
2019-05-25T02:26:31.271Z,33.50
2019-05-25T02:29:03.443Z,30.23
2019-05-25T02:31:35.468Z,30.03
2019-05-25T02:34:07.459Z,25.47
2019-05-25T02:36:39.451Z,32.80
2019-05-25T02:39:11.404Z,53.53
2019-05-25T02:41:43.381Z,51.47
2019-05-25T02:44:15.339Z,48.33
2019-05-25T02:46:47.341Z,46.63
2019-05-25T02:49:19.328Z,49.80
2019-05-25T02:51:51.303Z,49.53
2019-05-25T02:54:23.291Z,45.07
2019-05-25T02:56:55.253Z,45.60
2019-05-25T02:59:27.200Z,43.17
2019-05-25T03:01:59.178Z,40.73
2019-05-25T03:04:31.256Z,41.27
2019-05-25T03:07:04.847Z,35.10
2019-05-25T03:09:37.706Z,32.80
2019-05-25T03:12:10.153Z,31.67
2019-05-25T03:14:42.135Z,30.53
2019-05-25T03:17:14.102Z,33.50
2019-05-25T03:19:46.088Z,30.03
2019-05-25T03:22:18.034Z,43.67
2019-05-25T03:24:50.000Z,41.67
2019-05-25T03:27:22.089Z,42.37
2019-05-25T03:29:54.095Z,41.33
2019-05-25T03:32:26.075Z,37.57
2019-05-25T03:34:58.497Z,38.67
2019-05-25T03:37:30.514Z,40.40
2019-05-25T03:40:02.493Z,38.10
2019-05-25T03:42:34.439Z,35.80
2019-05-25T03:45:07.230Z,33.17
2019-05-25T03:47:39.181Z,34.43
2019-05-25T03:50:11.257Z,34.93
2019-05-25T03:52:43.239Z,35.57
2019-05-25T03:55:15.515Z,33.77
2019-05-25T03:57:47.525Z,33.87
2019-05-25T04:00:33.573Z,33.20
2019-05-25T04:03:05.970Z,30.50
2019-05-25T04:05:37.938Z,35.33
2019-05-25T04:08:10.057Z,32.40
2019-05-25T04:10:42.038Z,32.87
2019-05-25T04:13:14.017Z,31.73
2019-05-25T04:15:46.018Z,33.73
2019-05-25T04:18:18.163Z,30.77
2019-05-25T04:20:50.454Z,31.00
2019-05-25T04:23:22.435Z,29.17
2019-05-25T04:25:54.382Z,30.80
2019-05-25T04:28:26.380Z,31.40
2019-05-25T04:30:58.442Z,31.23
2019-05-25T04:33:30.778Z,34.00
2019-05-25T04:36:02.747Z,31.13
2019-05-25T04:38:34.748Z,30.17
2019-05-25T04:41:06.722Z,34.23
2019-05-25T04:43:38.697Z,31.30
2019-05-25T04:46:10.667Z,27.27
2019-05-25T04:48:42.732Z,26.10
2019-05-25T04:51:14.724Z,24.73
2019-05-25T04:53:46.804Z,23.60
2019-05-25T04:56:18.777Z,20.23
2019-05-25T04:58:50.746Z,20.70
2019-05-25T05:01:22.832Z,20.17
2019-05-25T05:03:54.804Z,21.03
2019-05-25T05:06:26.745Z,19.97
2019-05-25T05:08:58.783Z,21.67
2019-05-25T05:11:31.122Z,20.30
2019-05-25T05:14:03.129Z,20.27
2019-05-25T05:16:35.083Z,19.33
2019-05-25T05:19:07.177Z,18.82
2019-05-25T05:21:39.195Z,17.67
2019-05-25T05:24:11.183Z,18.57
2019-05-25T05:26:55.400Z,16.77
2019-05-25T05:29:16.873Z,14.80
2019-05-25T05:31:48.913Z,15.00
2019-05-25T05:34:20.905Z,14.25
2019-05-25T05:36:53.559Z,14.53
2019-05-25T05:39:26.037Z,13.58
2019-05-25T05:41:59.759Z,12.03
2019-05-25T05:44:33.467Z,11.78
2019-05-25T05:47:10.441Z,13.98
2019-05-25T05:49:41.911Z,13.03
2019-05-25T05:52:17.996Z,12.75
2019-05-25T05:54:51.797Z,12.33
2019-05-25T05:57:23.796Z,10.30
2019-05-25T05:59:55.798Z,10.95
2019-05-25T06:02:27.901Z,10.63
2019-05-25T06:04:59.940Z,14.45
2019-05-25T06:07:31.965Z,14.98
2019-05-25T06:10:04.145Z,11.53
2019-05-25T06:12:36.191Z,11.28
2019-05-25T06:15:08.607Z,14.25
2019-05-25T06:17:40.870Z,12.30
2019-05-25T06:20:13.252Z,12.40
2019-05-25T06:22:45.229Z,11.00
2019-05-25T06:25:17.898Z,11.12
2019-05-25T06:27:50.256Z,11.95
2019-05-25T06:30:23.388Z,11.73
2019-05-25T06:32:55.524Z,13.32
2019-05-25T06:35:27.600Z,21.52
2019-05-25T06:37:59.688Z,20.17
2019-05-25T06:40:31.733Z,13.78
2019-05-25T06:43:03.707Z,13.30
2019-05-25T06:45:35.741Z,13.58
2019-05-25T06:48:07.675Z,10.18
2019-05-25T06:50:39.704Z,15.48
2019-05-25T06:53:11.811Z,10.80
2019-05-25T06:55:44.450Z,9.85
2019-05-25T06:58:16.576Z,10.23
2019-05-25T07:00:48.521Z,8.78
2019-05-25T07:03:20.788Z,9.60
2019-05-25T07:05:52.761Z,10.53
2019-05-25T07:08:24.715Z,9.43
2019-05-25T07:10:56.679Z,8.95
2019-05-25T07:13:28.788Z,9.60
2019-05-25T07:16:01.255Z,7.35
2019-05-25T07:18:35.411Z,7.90
2019-05-25T07:21:07.042Z,7.60
2019-05-25T07:23:39.226Z,7.90
2019-05-25T07:26:11.269Z,8.20
2019-05-25T07:28:43.525Z,10.28
2019-05-25T07:31:15.484Z,6.97
2019-05-25T07:33:47.474Z,6.83
2019-05-25T07:36:19.400Z,6.62
2019-05-25T07:38:51.381Z,5.42
2019-05-25T07:41:23.699Z,5.97
2019-05-25T11:35:55.327Z,0.20
2019-05-25T11:38:27.332Z,0.10
2019-05-25T11:41:01.504Z,0.10
2019-05-25T11:43:33.504Z,0.10
2019-05-25T11:46:05.478Z,0.10
2019-05-25T11:48:37.500Z,0.00
2019-05-25T11:51:09.513Z,0.10
2019-05-25T11:53:41.658Z,0.10
2019-05-25T11:56:13.644Z,0.10
2019-05-25T11:58:47.691Z,0.23
2019-05-25T12:01:19.541Z,0.20
2019-05-25T12:03:51.517Z,0.40
2019-05-25T12:06:23.479Z,0.53
2019-05-25T12:08:55.715Z,0.62
2019-05-25T12:11:27.727Z,0.85
2019-05-25T12:13:59.663Z,1.00
2019-05-25T12:16:31.612Z,1.25
2019-05-25T12:19:03.602Z,1.40
2019-05-25T12:21:35.573Z,1.70
2019-05-25T12:24:07.586Z,1.57
2019-05-25T12:26:39.763Z,1.95
2019-05-25T12:29:11.759Z,2.10
2019-05-25T12:31:43.737Z,2.10
2019-05-25T12:34:15.692Z,2.17
2019-05-25T12:36:47.881Z,2.20
2019-05-25T12:39:20.331Z,2.33
2019-05-25T12:41:52.274Z,2.37
2019-05-25T12:44:24.264Z,2.45
2019-05-25T12:46:56.255Z,2.35
2019-05-25T12:49:28.269Z,2.67
2019-05-25T12:52:00.364Z,2.47
2019-05-25T12:54:32.431Z,2.80
2019-05-25T12:57:04.423Z,2.83
2019-05-25T12:59:36.409Z,2.70
2019-05-25T13:02:08.359Z,2.70
2019-05-25T13:04:40.769Z,2.47
2019-05-25T13:07:12.786Z,2.40
2019-05-25T13:09:44.733Z,2.70
2019-05-25T13:12:16.671Z,2.50
2019-05-25T13:14:48.723Z,3.40
2019-05-25T13:17:20.966Z,2.62
2019-05-25T13:19:53.003Z,3.45
2019-05-25T13:22:24.952Z,3.40
2019-05-25T13:24:56.948Z,2.70
2019-05-25T13:27:29.100Z,2.37
2019-05-25T13:30:03.292Z,2.75
2019-05-25T13:32:34.793Z,2.90
2019-05-25T13:35:07.194Z,3.05
2019-05-25T13:37:39.162Z,3.00
2019-05-25T13:40:11.613Z,2.87
2019-05-25T13:42:43.594Z,3.55
2019-05-25T13:45:16.189Z,3.90
2019-05-25T13:47:48.307Z,3.45
2019-05-25T13:50:21.093Z,3.65
2019-05-25T13:52:53.020Z,3.52
2019-05-25T13:55:24.952Z,3.12
2019-05-25T13:57:56.895Z,3.45
2019-05-25T14:00:29.001Z,3.63
2019-05-25T14:03:01.274Z,3.30
2019-05-25T14:05:33.233Z,3.00
2019-05-25T14:08:05.334Z,3.00
2019-05-25T14:10:37.289Z,3.15
2019-05-25T14:13:09.301Z,3.02
2019-05-25T14:15:41.381Z,2.80
2019-05-25T14:18:13.356Z,3.30
2019-05-25T14:20:45.320Z,3.00
2019-05-25T14:23:17.266Z,3.37
2019-05-25T14:25:49.222Z,3.17
2019-05-25T14:28:21.171Z,3.50
2019-05-25T14:30:53.127Z,3.10
2019-05-25T14:33:26.113Z,3.47
2019-05-25T14:35:58.049Z,3.23
2019-05-25T14:38:30.717Z,2.73
2019-05-25T14:41:02.686Z,3.20
2019-05-25T14:43:34.653Z,3.03
2019-05-25T14:46:06.809Z,2.40
2019-05-25T14:48:38.776Z,3.10
2019-05-25T14:51:11.114Z,3.10
2019-05-25T14:53:43.171Z,3.20
2019-05-25T14:56:15.142Z,2.70
2019-05-25T14:58:47.199Z,2.83
2019-05-25T15:01:19.200Z,2.87
2019-05-25T15:03:51.149Z,3.40
2019-05-25T15:06:23.129Z,3.53
2019-05-25T15:08:55.103Z,3.47
2019-05-25T15:11:27.170Z,3.90
2019-05-25T15:13:59.173Z,3.60
2019-05-25T15:16:32.351Z,4.17
2019-05-25T15:19:04.551Z,3.33
2019-05-25T15:21:37.770Z,3.43
2019-05-25T15:24:10.540Z,3.33
2019-05-25T15:26:42.606Z,2.90
2019-05-25T15:29:14.550Z,3.70
2019-05-25T15:31:46.847Z,3.17
2019-05-25T15:34:18.887Z,3.53
2019-05-25T15:36:51.081Z,3.03
2019-05-25T15:39:23.059Z,3.33
2019-05-25T15:41:55.027Z,3.30
2019-05-25T15:44:27.154Z,2.83
2019-05-25T15:46:59.170Z,3.10
2019-05-25T15:49:33.659Z,4.20
2019-05-25T15:52:06.307Z,4.73
2019-05-25T15:54:38.305Z,4.03
2019-05-25T15:57:10.514Z,4.33
2019-05-25T15:59:43.868Z,4.90
2019-05-25T16:02:15.805Z,4.80
2019-05-25T16:04:47.802Z,4.30
2019-05-25T16:07:19.806Z,4.00
2019-05-25T16:09:51.798Z,3.63
2019-05-25T16:12:23.788Z,3.80
2019-05-25T16:14:55.807Z,4.53
2019-05-25T16:17:27.878Z,4.23
2019-05-25T16:19:59.892Z,3.40
2019-05-25T16:22:32.084Z,4.00
2019-05-25T16:25:04.040Z,3.83
2019-05-25T16:27:36.076Z,4.47
2019-05-25T16:30:08.735Z,4.10
2019-05-25T16:33:09.956Z,4.10
2019-05-25T16:35:14.635Z,4.10
2019-05-25T16:37:46.774Z,4.40
2019-05-25T16:40:19.781Z,4.47
2019-05-25T16:42:51.702Z,3.67
2019-05-25T16:45:23.647Z,4.23
2019-05-25T16:47:55.636Z,5.27
2019-05-25T16:50:27.575Z,4.40
2019-05-25T16:53:00.040Z,4.40
2019-05-25T16:55:32.176Z,4.87
2019-05-25T16:58:04.170Z,5.00
2019-05-25T17:00:36.152Z,4.50
2019-05-25T17:03:08.207Z,4.43
2019-05-25T17:05:40.251Z,4.80
2019-05-25T17:08:12.189Z,5.10
2019-05-25T17:10:44.277Z,4.97
2019-05-25T17:13:16.220Z,5.80
2019-05-25T17:15:48.219Z,4.63
2019-05-25T17:18:20.541Z,5.67
2019-05-25T17:20:52.626Z,5.70
2019-05-25T17:23:24.593Z,5.93
2019-05-25T17:25:56.683Z,6.40
2019-05-25T17:28:28.725Z,10.03
2019-05-25T17:31:01.080Z,7.37
2019-05-25T17:33:45.457Z,6.23
2019-05-25T17:36:07.289Z,5.43
2019-05-25T17:38:39.264Z,4.50
2019-05-25T17:41:11.327Z,5.50
2019-05-25T17:43:43.386Z,5.17
2019-05-25T17:46:15.457Z,6.13
2019-05-25T17:48:47.437Z,5.83
2019-05-25T17:51:19.480Z,6.30
2019-05-25T17:53:51.439Z,5.80
2019-05-25T17:56:23.389Z,5.53
2019-05-25T17:58:55.385Z,5.87
2019-05-25T18:01:27.371Z,14.50
2019-05-25T18:04:07.175Z,7.37
2019-05-25T18:06:33.611Z,6.53
2019-05-25T18:09:07.821Z,8.30
2019-05-25T18:11:40.304Z,9.23
2019-05-25T18:14:12.335Z,8.37
2019-05-25T18:16:44.290Z,7.50
2019-05-25T18:19:16.251Z,10.67
2019-05-25T18:21:48.257Z,9.83
2019-05-25T18:24:20.246Z,9.13
2019-05-25T18:26:52.288Z,8.47
2019-05-25T18:29:24.250Z,7.87
2019-05-25T18:31:56.247Z,9.17
2019-05-25T18:34:28.217Z,9.03
2019-05-25T18:37:00.231Z,9.63
2019-05-25T18:39:32.323Z,10.73
2019-05-25T18:42:04.520Z,12.80
2019-05-25T18:44:36.510Z,13.90
2019-05-25T18:47:08.637Z,14.67
2019-05-25T18:49:41.000Z,14.40
2019-05-25T18:52:13.078Z,12.80
2019-05-25T18:54:45.072Z,10.90
2019-05-25T18:57:17.042Z,11.07
2019-05-25T18:59:49.171Z,9.90
2019-05-25T19:02:21.130Z,10.53
2019-05-25T19:04:59.511Z,8.47
2019-05-25T19:07:26.779Z,9.20
2019-05-25T19:09:58.713Z,9.37
2019-05-25T19:12:30.698Z,8.57
2019-05-25T19:15:02.835Z,9.40
2019-05-25T19:17:35.015Z,9.43
2019-05-25T19:20:07.834Z,10.10
2019-05-25T19:22:40.126Z,9.53
2019-05-25T19:25:12.430Z,8.37
2019-05-25T19:27:44.419Z,8.60
2019-05-25T19:30:17.148Z,9.07
2019-05-25T19:32:49.135Z,9.87
2019-05-25T19:35:21.351Z,9.90
2019-05-25T19:37:53.337Z,10.00
2019-05-25T19:40:25.272Z,10.40
2019-05-25T19:42:57.287Z,10.13
2019-05-25T19:45:29.275Z,10.03
2019-05-25T19:48:01.195Z,10.33
2019-05-25T19:50:33.191Z,10.10
2019-05-25T19:53:05.239Z,12.13
2019-05-25T19:55:37.191Z,11.10
2019-05-25T19:58:09.193Z,11.53
2019-05-25T20:00:41.166Z,12.23
2019-05-25T20:03:13.112Z,11.73
2019-05-25T20:05:45.292Z,12.33
2019-05-25T20:08:17.245Z,11.57
2019-05-25T20:10:49.449Z,11.47
2019-05-25T20:13:21.415Z,12.47
2019-05-25T20:15:53.431Z,13.07
2019-05-25T20:18:25.573Z,13.60
2019-05-25T20:20:57.891Z,13.60
2019-05-25T20:23:30.246Z,13.07
2019-05-25T20:26:02.254Z,12.60
2019-05-25T20:28:34.202Z,14.63
2019-05-25T20:31:06.185Z,13.73
2019-05-25T20:33:38.177Z,14.33
2019-05-25T20:36:10.153Z,14.80
2019-05-25T20:38:42.267Z,15.13
2019-05-25T20:41:14.235Z,14.63
2019-05-25T20:43:46.216Z,13.50
2019-05-25T20:46:18.153Z,13.40
2019-05-25T20:48:50.665Z,13.53
2019-05-25T20:51:22.611Z,13.60
2019-05-25T20:53:54.672Z,14.37
2019-05-25T20:56:26.611Z,14.67
2019-05-25T20:58:58.642Z,14.40
2019-05-25T21:01:30.583Z,14.97
2019-05-25T21:04:02.799Z,15.70
2019-05-25T21:06:34.783Z,14.47
2019-05-25T21:09:08.827Z,15.47
2019-05-25T21:11:41.114Z,16.10
2019-05-25T21:14:13.129Z,15.00
2019-05-25T21:16:45.230Z,16.30
2019-05-25T21:19:17.181Z,15.23
2019-05-25T21:21:49.175Z,15.47
2019-05-25T21:24:21.259Z,15.73
2019-05-25T21:26:53.241Z,16.37
2019-05-25T21:29:25.275Z,16.73
2019-05-25T21:31:57.456Z,16.30
2019-05-25T21:34:30.248Z,15.87
2019-05-25T21:37:02.220Z,19.87
2019-05-25T21:39:34.202Z,17.73
2019-05-25T21:42:06.242Z,19.40
2019-05-25T21:44:38.233Z,18.97
2019-05-25T21:47:10.314Z,20.27
2019-05-25T21:49:42.243Z,19.00
2019-05-25T21:52:14.202Z,20.67
2019-05-25T21:54:46.154Z,21.70
2019-05-25T21:57:18.137Z,20.73
2019-05-25T21:59:50.111Z,21.37
2019-05-25T22:02:22.110Z,21.57
2019-05-25T22:04:54.371Z,21.90
2019-05-25T22:07:26.439Z,21.63
2019-05-25T22:09:58.379Z,22.20
2019-05-25T22:12:30.359Z,21.10
2019-05-25T22:15:05.131Z,20.33
2019-05-25T22:17:35.935Z,21.53
2019-05-25T22:20:08.271Z,18.97
2019-05-25T22:22:41.829Z,22.53
2019-05-25T22:25:13.991Z,18.13
2019-05-25T22:27:46.025Z,18.77
2019-05-25T22:30:18.902Z,21.53
2019-05-25T22:32:51.364Z,20.70
2019-05-25T22:35:23.387Z,19.10
2019-05-25T22:37:56.515Z,18.00
2019-05-25T22:40:28.630Z,19.03
2019-05-25T22:43:00.595Z,17.40
2019-05-25T22:45:32.595Z,17.27
2019-05-25T22:48:04.640Z,16.97
2019-05-25T22:50:36.641Z,16.00
2019-05-25T22:53:08.794Z,16.13
2019-05-25T22:55:41.015Z,17.43
2019-05-25T22:58:13.042Z,18.13
2019-05-25T23:00:45.061Z,16.77
2019-05-25T23:03:17.103Z,16.93
2019-05-25T23:05:49.185Z,17.87
2019-05-25T23:08:21.306Z,16.03
2019-05-25T23:10:53.289Z,16.10
2019-05-25T23:13:25.231Z,17.40
2019-05-25T23:15:57.187Z,16.43
2019-05-25T23:18:29.133Z,17.53
2019-05-25T23:21:01.156Z,16.60
2019-05-25T23:23:33.205Z,16.87
2019-05-25T23:26:05.208Z,17.57
2019-05-25T23:28:37.149Z,17.10
2019-05-25T23:31:09.108Z,16.17
2019-05-25T23:33:41.173Z,17.20
2019-05-25T23:36:13.171Z,16.73
2019-05-25T23:38:46.965Z,16.70
2019-05-25T23:41:18.990Z,16.47
2019-05-25T23:43:51.227Z,17.10
2019-05-25T23:46:23.225Z,16.83
2019-05-25T23:48:55.205Z,15.93
2019-05-25T23:51:27.164Z,15.90
2019-05-25T23:54:00.227Z,15.83
2019-05-25T23:56:33.223Z,15.80
2019-05-25T23:59:05.304Z,16.00
